Terminal Aerodrome Forecast
Issued by NWS Raleigh/Durham, NC

Home | Current Version | Previous Version | Text Only | Print | Product List | Glossary On
Versions: 1 2 3 4 5 6 7 8 9 10 11 12 13 14 15 16 17 18 19 20 21 22 23 24 25 26 27 28 29 30
460
FTUS42 KRAH 291558 AAA
TAFGSO
TAF AMD
KGSO 291558Z 2916/3012 36005KT P6SM VCSH SCT025 BKN035
      TEMPO 2916/2920 5SM -SHRA BR SCT010 BKN025
     FM292000 01007KT P6SM VCSH SCT015 BKN035
      TEMPO 2920/2924 5SM -SHRA BR BKN015 OVC025=

USA.gov is the U.S. government's official web portal to all federal, state and local government web resources and services.